Time;durP1;ratioP1;P1;durP2;ratioP2;P2;SDS_P1;SDS_P2;PMS_P1;PMS_P2;Temp;Humidity;BMP_temperature;BMP_pressure;BME280_temperature;BME280_humidity;BME280_pressure;Samples;Min_cycle;Max_cycle;Signal;HPM_P1;HPM_P2
2024/02/22 00:00:51;;;;;;;963.10;884.53;;;9.00;99.90;;;;;;5053317;28;20490;-67
2024/02/22 00:03:19;;;;;;;1037.57;955.80;;;9.00;99.90;;;;;;5052746;28;20478;-67
2024/02/22 00:05:46;;;;;;;1023.60;938.80;;;9.00;99.90;;;;;;5053178;28;20452;-67
2024/02/22 00:08:13;;;;;;;1039.37;951.37;;;9.00;99.90;;;;;;5053027;28;20451;-67
2024/02/22 00:10:41;;;;;;;1093.30;999.63;;;9.00;99.90;;;;;;5053053;28;20447;-68
2024/02/22 00:13:08;;;;;;;1115.97;999.90;;;9.00;99.90;;;;;;5052036;28;20532;-67
2024/02/22 00:15:34;;;;;;;1129.50;999.90;;;9.10;99.90;;;;;;5052987;28;20539;-67
2024/02/22 00:18:03;;;;;;;1150.57;999.90;;;9.20;99.90;;;;;;5052898;28;20459;-67
2024/02/22 00:20:31;;;;;;;1143.07;999.90;;;9.20;99.90;;;;;;5052831;28;20483;-66
2024/02/22 00:22:59;;;;;;;1159.83;999.90;;;9.30;99.90;;;;;;5052674;28;20475;-67
2024/02/22 00:25:26;;;;;;;1167.70;999.90;;;9.30;99.90;;;;;;5053159;28;20546;-67
2024/02/22 00:27:53;;;;;;;1152.70;999.90;;;9.40;99.90;;;;;;5053624;28;20462;-66
2024/02/22 00:30:22;;;;;;;1149.73;999.90;;;9.40;99.90;;;;;;5053032;28;20455;-66
2024/02/22 00:32:49;;;;;;;1144.97;999.90;;;9.40;99.90;;;;;;5052267;28;20475;-66
2024/02/22 00:35:16;;;;;;;1138.63;999.90;;;9.40;99.90;;;;;;5052418;28;20451;-66
2024/02/22 00:37:44;;;;;;;1131.43;999.90;;;9.40;99.90;;;;;;5052530;28;20462;-66
2024/02/22 00:40:14;;;;;;;1147.50;999.90;;;9.50;99.90;;;;;;5051784;28;20451;-66
2024/02/22 00:42:40;;;;;;;1144.50;999.90;;;9.40;99.90;;;;;;5051314;28;21005;-66
2024/02/22 00:45:08;;;;;;;1151.07;999.90;;;9.40;99.90;;;;;;5052328;28;20447;-66
2024/02/22 00:47:35;;;;;;;1147.60;999.90;;;9.30;99.90;;;;;;5052301;28;20954;-66
2024/02/22 00:50:02;;;;;;;1143.13;999.90;;;9.40;99.90;;;;;;5052171;28;20498;-66
2024/02/22 00:52:29;;;;;;;1141.70;999.90;;;9.40;99.90;;;;;;5051835;28;20520;-66
2024/02/22 00:54:58;;;;;;;1155.60;999.90;;;9.40;99.90;;;;;;5051880;28;20462;-66
2024/02/22 00:57:24;;;;;;;1151.73;999.90;;;9.40;99.90;;;;;;5052367;28;20813;-66
2024/02/22 00:59:51;;;;;;;1166.23;999.90;;;9.40;99.90;;;;;;5051871;28;20858;-67
2024/02/22 01:02:18;;;;;;;1138.50;999.90;;;9.40;99.90;;;;;;5051889;28;20788;-66
2024/02/22 01:04:45;;;;;;;1133.30;999.90;;;9.50;99.90;;;;;;5051826;28;20451;-68
2024/02/22 01:07:12;;;;;;;1147.90;999.90;;;9.50;99.90;;;;;;5051862;28;20520;-68
2024/02/22 01:09:39;;;;;;;1149.03;999.90;;;9.50;99.90;;;;;;5052213;28;20461;-67
2024/02/22 01:12:07;;;;;;;1149.40;999.90;;;9.50;99.90;;;;;;5051846;28;20453;-67
2024/02/22 01:14:34;;;;;;;1164.43;999.90;;;9.50;99.90;;;;;;5051632;28;20458;-68
2024/02/22 01:17:01;;;;;;;1141.57;999.90;;;9.60;99.90;;;;;;5051929;28;20455;-67
2024/02/22 01:19:27;;;;;;;1161.03;999.90;;;9.50;99.90;;;;;;5051738;28;20451;-67
2024/02/22 01:21:56;;;;;;;1160.83;999.90;;;9.50;99.90;;;;;;5051418;28;20479;-67
2024/02/22 01:24:24;;;;;;;1159.43;999.90;;;9.60;99.90;;;;;;5043748;28;20503;-68
2024/02/22 01:26:51;;;;;;;1141.10;999.90;;;9.60;99.90;;;;;;5051989;28;20447;-68
2024/02/22 01:29:19;;;;;;;1148.87;999.90;;;9.60;99.90;;;;;;5051786;28;20542;-68
2024/02/22 01:31:46;;;;;;;1141.33;999.90;;;9.60;99.90;;;;;;5051876;28;20449;-68
2024/02/22 01:34:13;;;;;;;1136.43;999.90;;;9.60;99.90;;;;;;5050881;28;20474;-67
2024/02/22 01:36:39;;;;;;;1133.17;999.90;;;9.60;99.90;;;;;;5052003;28;20439;-67
2024/02/22 01:39:09;;;;;;;1143.67;999.90;;;9.60;99.90;;;;;;5052166;28;20447;-68
2024/02/22 01:41:36;;;;;;;1131.37;999.90;;;9.70;99.90;;;;;;5051925;28;20482;-68
2024/02/22 01:44:03;;;;;;;1124.37;999.90;;;9.70;99.90;;;;;;5051163;28;20481;-67
2024/02/22 01:46:31;;;;;;;1138.10;999.90;;;9.70;99.90;;;;;;5051836;28;20458;-68
2024/02/22 01:48:58;;;;;;;1153.83;999.90;;;9.70;99.90;;;;;;5051235;28;20459;-68
2024/02/22 01:51:25;;;;;;;1152.33;999.90;;;9.70;99.90;;;;;;5051808;28;20592;-68
2024/02/22 01:53:53;;;;;;;1162.97;999.90;;;9.70;99.90;;;;;;5054749;28;20475;-68
2024/02/22 01:56:21;;;;;;;1148.20;999.90;;;9.70;99.90;;;;;;5055509;28;20451;-68
2024/02/22 01:58:50;;;;;;;1155.57;999.90;;;9.70;99.90;;;;;;5055339;28;20469;-68
2024/02/22 02:01:19;;;;;;;1153.17;999.90;;;9.70;99.90;;;;;;5055167;28;20489;-68
2024/02/22 02:03:49;;;;;;;1151.93;999.90;;;9.70;99.90;;;;;;5055065;28;20471;-68
2024/02/22 02:06:15;;;;;;;1137.53;999.90;;;9.70;99.90;;;;;;5055359;28;20459;-67
2024/02/22 02:08:42;;;;;;;1116.37;999.90;;;9.70;99.90;;;;;;5055634;28;20451;-67
2024/02/22 02:11:09;;;;;;;1118.57;999.90;;;9.70;99.90;;;;;;5055123;28;20451;-67
2024/02/22 02:13:36;;;;;;;1128.67;999.90;;;9.60;99.90;;;;;;5054795;28;20471;-68
2024/02/22 02:16:03;;;;;;;1123.37;999.90;;;9.60;99.90;;;;;;5054945;28;20451;-67
2024/02/22 02:18:30;;;;;;;1104.90;999.90;;;9.60;99.90;;;;;;5055246;28;20839;-66
2024/02/22 02:21:03;;;;;;;1108.10;999.90;;;9.60;99.90;;;;;;5054951;28;20459;-67
2024/02/22 02:23:42;;;;;;;1096.30;990.83;;;9.60;99.90;;;;;;5054608;28;20502;-67
2024/02/22 02:26:11;;;;;;;1098.53;991.67;;;9.60;99.90;;;;;;5054944;28;20447;-68
2024/02/22 02:28:37;;;;;;;1097.60;990.27;;;9.50;99.90;;;;;;5054561;28;20549;-68
2024/02/22 02:31:04;;;;;;;1092.87;985.67;;;9.50;99.90;;;;;;5054958;28;20470;-68
2024/02/22 02:33:31;;;;;;;1081.17;974.00;;;9.60;99.90;;;;;;5054674;28;20487;-68
2024/02/22 02:35:58;;;;;;;1094.50;987.00;;;9.60;99.90;;;;;;5055053;28;20454;-68
2024/02/22 02:38:25;;;;;;;1094.13;986.17;;;9.60;99.90;;;;;;5055270;28;20478;-68
2024/02/22 02:40:52;;;;;;;1091.73;982.33;;;9.60;99.90;;;;;;5056098;28;20485;-67
2024/02/22 02:43:20;;;;;;;1103.93;993.33;;;9.60;99.90;;;;;;5054837;28;20569;-67
2024/02/22 02:45:47;;;;;;;1099.67;989.53;;;9.60;99.90;;;;;;5055115;28;20451;-68
2024/02/22 02:48:19;;;;;;;1094.10;985.07;;;9.60;99.90;;;;;;5055112;28;20454;-67
2024/02/22 02:50:45;;;;;;;1095.83;986.07;;;9.60;99.90;;;;;;5054697;28;20483;-68
2024/02/22 02:53:12;;;;;;;1104.73;996.13;;;9.60;99.90;;;;;;5054194;28;20477;-68
2024/02/22 02:55:39;;;;;;;1101.60;994.43;;;9.60;99.90;;;;;;5053903;28;20451;-68
2024/02/22 02:58:08;;;;;;;1128.60;999.90;;;9.60;99.90;;;;;;5054302;28;20452;-68
2024/02/22 03:00:36;;;;;;;1109.37;999.90;;;9.60;99.90;;;;;;5054320;28;20486;-67
2024/02/22 03:03:04;;;;;;;1152.97;999.90;;;9.60;99.90;;;;;;5053596;28;20590;-67
2024/02/22 03:05:31;;;;;;;1120.27;999.90;;;9.60;99.90;;;;;;5053393;28;20542;-68
2024/02/22 03:07:58;;;;;;;1080.23;970.50;;;9.60;99.90;;;;;;5053987;28;20458;-67
2024/02/22 03:10:24;;;;;;;1072.20;963.93;;;9.60;99.90;;;;;;5054194;28;20496;-67
2024/02/22 03:12:52;;;;;;;1078.40;969.43;;;9.60;99.90;;;;;;5053780;28;20672;-68
2024/02/22 03:15:19;;;;;;;1075.87;968.57;;;9.60;99.90;;;;;;5053980;28;20530;-68
2024/02/22 03:17:47;;;;;;;1070.33;962.63;;;9.60;99.90;;;;;;5054087;28;20455;-67
2024/02/22 03:20:17;;;;;;;1068.23;959.60;;;9.60;99.90;;;;;;5053789;28;20455;-68
2024/02/22 03:22:43;;;;;;;1072.83;963.87;;;9.60;99.90;;;;;;5053533;28;20544;-68
2024/02/22 03:25:12;;;;;;;1058.40;948.20;;;9.60;99.90;;;;;;5053763;28;20483;-68
2024/02/22 03:27:38;;;;;;;1077.87;967.57;;;9.60;99.90;;;;;;5053829;28;20931;-67
2024/02/22 03:30:08;;;;;;;1079.67;969.10;;;9.60;99.90;;;;;;5053751;28;20489;-68
2024/02/22 03:32:36;;;;;;;1090.00;980.33;;;9.60;99.90;;;;;;5053450;28;20463;-67
2024/02/22 03:35:05;;;;;;;1078.40;968.83;;;9.60;99.90;;;;;;5053401;28;20462;-66
2024/02/22 03:37:32;;;;;;;1085.97;975.87;;;9.60;99.90;;;;;;5053793;28;20486;-67
2024/02/22 03:39:59;;;;;;;1060.37;952.50;;;9.60;99.90;;;;;;5053355;28;20451;-68
2024/02/22 03:42:25;;;;;;;1060.10;952.10;;;9.60;99.90;;;;;;5053082;28;20490;-67
2024/02/22 03:44:52;;;;;;;1063.30;956.20;;;9.60;99.90;;;;;;5053454;28;20451;-68
2024/02/22 03:47:19;;;;;;;1060.33;953.37;;;9.60;99.90;;;;;;5053701;28;20458;-67
2024/02/22 03:49:46;;;;;;;1080.63;972.00;;;9.60;99.90;;;;;;5053359;28;20451;-67
2024/02/22 03:52:14;;;;;;;1104.17;994.17;;;9.60;99.90;;;;;;5053531;28;20447;-67
2024/02/22 03:54:41;;;;;;;1100.13;990.03;;;9.60;99.90;;;;;;5053176;28;20447;-68
2024/02/22 03:57:08;;;;;;;1099.33;989.70;;;9.60;99.90;;;;;;5053402;28;20452;-67
2024/02/22 03:59:35;;;;;;;1071.27;962.97;;;9.60;99.90;;;;;;5053220;28;20462;-67
2024/02/22 04:02:03;;;;;;;1088.03;981.23;;;9.60;99.90;;;;;;5052820;28;21006;-67
2024/02/22 04:04:30;;;;;;;1080.47;973.40;;;9.80;99.90;;;;;;5052876;28;20822;-67
2024/02/22 04:06:58;;;;;;;1085.43;978.70;;;9.70;99.90;;;;;;5053127;28;20997;-67
2024/02/22 04:09:26;;;;;;;1105.73;997.53;;;9.60;99.90;;;;;;5053189;28;20451;-67
2024/02/22 04:11:53;;;;;;;1090.50;981.80;;;9.60;99.90;;;;;;5052863;28;20936;-67
2024/02/22 04:14:19;;;;;;;1085.03;975.70;;;9.60;99.90;;;;;;5052277;28;21029;-67
2024/02/22 04:16:46;;;;;;;1055.57;947.77;;;9.70;99.90;;;;;;5052631;28;20834;-66
2024/02/22 04:19:13;;;;;;;1053.80;947.20;;;9.70;99.90;;;;;;5052844;28;20553;-68
2024/02/22 04:21:41;;;;;;;1074.50;967.83;;;9.60;99.90;;;;;;5052777;28;20458;-67
2024/02/22 04:24:08;;;;;;;1055.00;949.37;;;9.60;99.90;;;;;;5052295;28;20478;-67
2024/02/22 04:26:48;;;;;;;1045.93;939.43;;;9.60;99.90;;;;;;5052767;28;20455;-66
2024/02/22 04:29:15;;;;;;;1040.13;932.73;;;9.60;99.90;;;;;;5052360;28;21024;-67
2024/02/22 04:31:42;;;;;;;1034.07;926.67;;;9.60;99.90;;;;;;5052478;28;20473;-67
2024/02/22 04:34:09;;;;;;;1026.20;922.20;;;9.60;99.90;;;;;;5052142;28;20482;-68
2024/02/22 04:36:39;;;;;;;1018.77;913.97;;;9.50;99.90;;;;;;5052438;28;20461;-67
2024/02/22 04:39:07;;;;;;;1035.80;931.50;;;9.50;99.90;;;;;;5052082;28;20508;-67
2024/02/22 04:41:34;;;;;;;1050.77;945.20;;;9.50;99.90;;;;;;5052416;28;20459;-67
2024/02/22 04:44:03;;;;;;;1033.27;927.97;;;9.50;99.90;;;;;;5051570;28;20486;-68
2024/02/22 04:46:30;;;;;;;1043.17;938.30;;;9.50;99.90;;;;;;5052512;28;20842;-67
2024/02/22 04:48:59;;;;;;;1041.60;937.00;;;9.50;99.90;;;;;;5052255;28;20455;-67
2024/02/22 04:51:25;;;;;;;1025.33;920.67;;;9.50;99.90;;;;;;5052141;28;20984;-67
2024/02/22 04:53:52;;;;;;;1024.30;919.97;;;9.50;99.90;;;;;;5051848;28;20846;-67
2024/02/22 04:56:19;;;;;;;1027.43;923.53;;;9.50;99.90;;;;;;5051830;28;20451;-68
2024/02/22 04:58:46;;;;;;;1003.53;898.70;;;9.50;99.90;;;;;;5051801;28;20459;-67
2024/02/22 05:01:14;;;;;;;1042.70;939.67;;;9.50;99.90;;;;;;5052069;28;20955;-67
2024/02/22 05:03:41;;;;;;;1020.37;916.27;;;9.60;99.90;;;;;;5051664;28;20493;-68
2024/02/22 05:06:08;;;;;;;1029.00;926.60;;;9.50;99.90;;;;;;5052102;28;20456;-68
2024/02/22 05:08:36;;;;;;;1033.13;930.73;;;9.60;99.90;;;;;;5052377;28;20522;-68
2024/02/22 05:11:03;;;;;;;1057.23;954.23;;;9.60;99.90;;;;;;5052137;28;20462;-68
2024/02/22 05:13:30;;;;;;;1063.73;961.57;;;9.60;99.90;;;;;;5051361;28;20473;-68
2024/02/22 05:15:56;;;;;;;1053.97;952.00;;;9.60;99.90;;;;;;5051915;28;20465;-68
2024/02/22 05:18:25;;;;;;;1056.50;953.53;;;9.60;99.90;;;;;;5051838;28;20950;-68
2024/02/22 05:20:51;;;;;;;1028.03;924.20;;;9.60;99.90;;;;;;5052066;28;20461;-68
2024/02/22 05:23:18;;;;;;;1038.23;935.67;;;9.70;99.90;;;;;;5051098;28;20493;-68
2024/02/22 05:25:45;;;;;;;1026.40;923.70;;;9.60;99.90;;;;;;5051945;28;20462;-68
2024/02/22 05:28:12;;;;;;;1039.83;937.43;;;9.60;99.90;;;;;;5051551;28;20466;-68
2024/02/22 05:30:39;;;;;;;1045.20;943.03;;;9.60;99.90;;;;;;5051914;28;20455;-68
2024/02/22 05:33:09;;;;;;;1018.37;915.90;;;9.60;99.90;;;;;;5051280;28;20852;-68
2024/02/22 05:35:37;;;;;;;1005.73;903.30;;;9.50;99.90;;;;;;5051789;28;20546;-69
2024/02/22 05:38:04;;;;;;;1026.93;926.03;;;9.50;99.90;;;;;;5051408;28;20455;-69
2024/02/22 05:40:31;;;;;;;1014.07;912.97;;;9.50;99.90;;;;;;5051684;28;20512;-69
2024/02/22 05:42:59;;;;;;;1020.97;919.70;;;9.70;99.90;;;;;;5050826;28;21002;-69
2024/02/22 05:45:41;;;;;;;1041.13;938.83;;;9.50;99.90;;;;;;5051750;28;20466;-69
2024/02/22 05:48:09;;;;;;;1030.90;928.40;;;9.50;99.90;;;;;;5051540;28;20939;-69
2024/02/22 05:50:37;;;;;;;1049.33;947.13;;;9.50;99.90;;;;;;5051243;28;20455;-69
2024/02/22 05:53:04;;;;;;;1082.53;980.13;;;9.50;99.90;;;;;;5051237;28;20467;-69
2024/02/22 05:55:31;;;;;;;1095.03;992.10;;;9.60;99.90;;;;;;5051566;28;20586;-69
2024/02/22 05:57:58;;;;;;;1108.13;999.90;;;9.60;99.90;;;;;;5051294;28;20455;-69
2024/02/22 06:00:25;;;;;;;1119.33;999.90;;;9.60;99.90;;;;;;5051892;28;20454;-70
2024/02/22 06:02:52;;;;;;;1090.30;990.77;;;9.70;99.90;;;;;;5051511;28;20568;-70
2024/02/22 06:05:19;;;;;;;1065.63;967.10;;;9.70;99.90;;;;;;5051944;28;21073;-71
2024/02/22 06:07:47;;;;;;;1058.20;960.60;;;9.70;99.90;;;;;;5051748;28;20454;-70
2024/02/22 06:10:14;;;;;;;1035.90;938.53;;;9.70;99.90;;;;;;5051367;28;20456;-70
2024/02/22 06:12:43;;;;;;;1044.30;946.80;;;9.70;99.90;;;;;;5050726;28;20482;-71
2024/02/22 06:15:10;;;;;;;1041.10;943.80;;;9.70;99.90;;;;;;5051039;28;20448;-71
2024/02/22 06:17:39;;;;;;;1027.77;930.37;;;9.70;99.90;;;;;;5051034;28;20462;-70
2024/02/22 06:20:07;;;;;;;1020.97;922.97;;;9.60;99.90;;;;;;5051117;28;20451;-71
2024/02/22 06:22:34;;;;;;;1033.27;936.17;;;9.60;99.90;;;;;;5050096;28;20859;-70
2024/02/22 06:25:02;;;;;;;1026.93;930.07;;;9.50;99.90;;;;;;5051028;28;20451;-70
2024/02/22 06:27:29;;;;;;;1014.97;918.47;;;9.50;99.90;;;;;;5051161;28;20456;-70
2024/02/22 06:29:56;;;;;;;1021.50;924.50;;;9.60;99.90;;;;;;5051164;28;20455;-70
2024/02/22 06:32:24;;;;;;;998.87;902.47;;;9.40;99.90;;;;;;5050510;28;20479;-71
2024/02/22 06:34:51;;;;;;;1002.27;905.37;;;9.40;99.90;;;;;;5050357;28;20481;-69
2024/02/22 06:37:19;;;;;;;998.17;901.87;;;9.30;99.90;;;;;;5049881;28;20451;-71
2024/02/22 06:39:46;;;;;;;1004.33;907.77;;;9.30;99.90;;;;;;5052665;28;20459;-69
2024/02/22 06:42:14;;;;;;;991.17;895.57;;;9.30;99.90;;;;;;5055129;28;20459;-69
2024/02/22 06:44:44;;;;;;;987.97;892.47;;;9.30;99.90;;;;;;5053841;28;20485;-68
2024/02/22 06:47:11;;;;;;;999.60;903.00;;;9.20;99.90;;;;;;5055112;28;20547;-69
2024/02/22 06:49:38;;;;;;;1005.37;905.77;;;9.20;99.90;;;;;;5054980;28;20451;-69
2024/02/22 06:52:05;;;;;;;1009.07;909.57;;;9.20;99.90;;;;;;5054642;28;20543;-69
2024/02/22 06:54:33;;;;;;;1016.57;918.00;;;9.20;99.90;;;;;;5054211;28;20985;-69
2024/02/22 06:56:59;;;;;;;1016.57;917.97;;;9.20;99.90;;;;;;5054350;28;20451;-69
2024/02/22 06:59:28;;;;;;;1030.60;932.60;;;9.30;99.90;;;;;;5054402;28;20553;-69
2024/02/22 07:01:55;;;;;;;1007.47;909.33;;;9.40;99.90;;;;;;5054486;28;20451;-69
2024/02/22 07:04:21;;;;;;;1000.37;902.87;;;9.40;99.90;;;;;;5045790;28;20486;-69
2024/02/22 07:06:48;;;;;;;1010.50;914.20;;;9.50;99.90;;;;;;5054625;28;20455;-70
2024/02/22 07:09:15;;;;;;;990.93;895.53;;;9.40;99.90;;;;;;5054325;28;20447;-69
2024/02/22 07:11:42;;;;;;;989.80;894.33;;;9.50;99.90;;;;;;5054098;28;20508;-69
2024/02/22 07:14:09;;;;;;;985.37;889.27;;;9.50;99.90;;;;;;5053504;28;20477;-69
2024/02/22 07:16:37;;;;;;;1014.90;917.40;;;9.50;99.90;;;;;;5054110;28;20459;-69
2024/02/22 07:19:04;;;;;;;999.63;903.80;;;9.50;99.90;;;;;;5053723;28;21016;-70
2024/02/22 07:21:34;;;;;;;990.43;896.07;;;9.60;99.90;;;;;;5054034;28;20451;-70
2024/02/22 07:24:03;;;;;;;983.07;890.17;;;9.60;99.90;;;;;;5053921;28;20479;-69
2024/02/22 07:26:31;;;;;;;1000.83;908.13;;;9.60;99.90;;;;;;5053800;28;21010;-69
2024/02/22 07:28:58;;;;;;;1004.17;912.60;;;9.70;99.90;;;;;;5053741;28;20504;-70
2024/02/22 07:31:25;;;;;;;1006.20;915.93;;;9.70;99.90;;;;;;5054213;28;20459;-70
2024/02/22 07:33:54;;;;;;;1009.70;919.43;;;9.70;99.90;;;;;;5053231;28;20482;-70
2024/02/22 07:36:20;;;;;;;999.60;909.90;;;9.70;99.90;;;;;;5053920;28;20918;-70
2024/02/22 07:38:47;;;;;;;977.43;888.37;;;9.80;99.90;;;;;;5053543;28;20455;-70
2024/02/22 07:41:16;;;;;;;967.67;878.57;;;9.70;99.90;;;;;;5053872;28;20451;-71
2024/02/22 07:43:43;;;;;;;965.87;877.77;;;9.70;99.90;;;;;;5053560;28;20985;-72
2024/02/22 07:46:11;;;;;;;965.70;877.60;;;9.80;99.90;;;;;;5053865;28;20455;-71
2024/02/22 07:48:39;;;;;;;962.77;875.70;;;9.90;99.90;;;;;;5053532;28;20455;-71
2024/02/22 07:51:07;;;;;;;942.67;858.17;;;9.90;99.90;;;;;;5053134;28;20462;-71
2024/02/22 07:53:36;;;;;;;926.00;843.03;;;10.00;99.90;;;;;;5053437;28;20498;-71
2024/02/22 07:56:04;;;;;;;913.90;832.70;;;10.10;99.90;;;;;;5053429;28;20456;-71
2024/02/22 07:58:33;;;;;;;893.83;813.80;;;10.20;99.90;;;;;;5053364;28;20463;-71
2024/02/22 08:01:00;;;;;;;901.53;822.63;;;10.40;99.90;;;;;;5053202;28;20526;-73
2024/02/22 08:03:26;;;;;;;892.93;815.83;;;10.30;99.90;;;;;;5052608;28;20511;-72
2024/02/22 08:05:53;;;;;;;881.77;805.13;;;10.30;99.90;;;;;;5052786;28;20469;-72
2024/02/22 08:08:22;;;;;;;865.67;790.70;;;10.40;99.90;;;;;;5052824;28;20451;-72
2024/02/22 08:10:49;;;;;;;862.90;789.00;;;10.40;99.90;;;;;;5052983;28;20458;-72
2024/02/22 08:13:17;;;;;;;855.20;782.50;;;10.40;99.90;;;;;;5051979;28;20558;-72
2024/02/22 08:15:44;;;;;;;842.93;772.00;;;10.40;99.90;;;;;;5052775;28;20896;-72
2024/02/22 08:18:11;;;;;;;834.90;766.47;;;10.40;99.90;;;;;;5050955;28;20479;-72
2024/02/22 08:20:38;;;;;;;832.13;766.07;;;10.50;99.90;;;;;;5051638;28;20528;-75
2024/02/22 08:23:08;;;;;;;837.30;772.03;;;10.60;99.90;;;;;;5050681;28;20475;-73
2024/02/22 08:25:37;;;;;;;834.13;771.03;;;10.60;99.90;;;;;;5050143;28;20454;-73
2024/02/22 08:28:05;;;;;;;831.10;768.57;;;10.70;99.90;;;;;;5052028;28;20451;-73
2024/02/22 08:30:32;;;;;;;824.50;763.00;;;10.70;99.90;;;;;;5051567;28;20955;-73
2024/02/22 08:32:59;;;;;;;833.43;772.60;;;10.80;99.90;;;;;;5050782;28;20982;-73
2024/02/22 08:35:25;;;;;;;833.00;773.57;;;11.00;99.90;;;;;;5052105;28;20458;-72
2024/02/22 08:37:52;;;;;;;838.47;780.53;;;11.00;99.90;;;;;;5052101;28;20939;-73
2024/02/22 08:40:20;;;;;;;833.47;776.83;;;11.10;99.90;;;;;;5052014;28;20462;-73
2024/02/22 08:42:48;;;;;;;840.73;783.90;;;11.20;99.90;;;;;;5051549;28;21032;-74
2024/02/22 08:45:17;;;;;;;837.90;782.60;;;11.20;99.90;;;;;;5050322;28;20994;-73
2024/02/22 08:47:44;;;;;;;847.13;793.03;;;11.20;99.90;;;;;;5029936;28;20466;-73
2024/02/22 08:50:13;;;;;;;847.33;792.80;;;11.30;99.90;;;;;;5004367;28;20461;-73
2024/02/22 08:52:42;;;;;;;847.93;794.67;;;11.20;99.90;;;;;;5011133;28;20530;-73
2024/02/22 08:55:09;;;;;;;848.80;796.10;;;11.20;99.90;;;;;;5008675;28;20509;-73
2024/02/22 08:57:36;;;;;;;854.43;802.70;;;11.20;99.90;;;;;;5011574;28;20461;-73
2024/02/22 09:00:08;;;;;;;853.90;803.23;;;11.20;99.90;;;;;;5002042;28;20512;-72
2024/02/22 09:02:35;;;;;;;860.77;809.80;;;11.30;99.90;;;;;;4991091;28;20493;-73
2024/02/22 09:05:02;;;;;;;864.97;815.07;;;11.30;99.90;;;;;;5000653;28;20492;-73
2024/02/22 09:07:30;;;;;;;869.90;820.30;;;11.30;99.90;;;;;;5012059;28;20468;-73
2024/02/22 09:09:57;;;;;;;857.50;810.10;;;11.40;99.90;;;;;;5012073;28;20461;-73
2024/02/22 09:12:24;;;;;;;853.97;808.03;;;11.40;99.90;;;;;;5000015;28;20477;-72
2024/02/22 09:14:51;;;;;;;841.10;797.33;;;11.60;99.90;;;;;;4992342;28;20454;-73
2024/02/22 09:17:19;;;;;;;823.00;781.80;;;11.50;99.90;;;;;;5010113;28;20461;-73
2024/02/22 09:19:46;;;;;;;832.50;790.60;;;11.60;99.90;;;;;;5012233;28;20457;-73
2024/02/22 09:22:13;;;;;;;819.73;779.83;;;11.70;99.90;;;;;;5012070;28;20853;-73
2024/02/22 09:24:43;;;;;;;782.00;746.03;;;11.70;99.90;;;;;;4997777;28;20568;-73
2024/02/22 09:27:12;;;;;;;746.27;713.87;;;11.70;99.90;;;;;;4992234;28;20961;-72
2024/02/22 09:29:39;;;;;;;768.77;734.87;;;11.70;99.90;;;;;;4998465;28;20457;-72
2024/02/22 09:32:07;;;;;;;740.37;708.47;;;11.70;99.90;;;;;;5010565;28;20453;-72
2024/02/22 09:34:36;;;;;;;755.47;722.83;;;11.70;99.90;;;;;;5005321;28;20452;-72
2024/02/22 09:37:04;;;;;;;730.73;699.83;;;11.80;99.90;;;;;;5011809;28;20496;-73
2024/02/22 09:39:30;;;;;;;721.20;690.93;;;12.00;99.90;;;;;;5012410;28;20449;-72
2024/02/22 09:41:58;;;;;;;658.53;632.53;;;12.10;99.90;;;;;;5012168;28;20461;-72
2024/02/22 09:44:26;;;;;;;543.90;524.40;;;12.20;99.90;;;;;;5007437;28;20493;-72
2024/02/22 09:46:54;;;;;;;521.83;503.23;;;12.30;99.90;;;;;;5008292;28;20461;-72
2024/02/22 09:49:21;;;;;;;555.53;535.10;;;12.30;99.90;;;;;;5003779;28;20897;-72
2024/02/22 09:51:51;;;;;;;479.00;462.30;;;12.30;99.90;;;;;;4996663;28;20532;-72
2024/02/22 09:54:18;;;;;;;508.23;489.83;;;12.30;99.90;;;;;;5010901;28;20466;-72
2024/02/22 09:56:46;;;;;;;481.30;463.97;;;12.30;99.90;;;;;;5011786;28;20556;-72
2024/02/22 09:59:13;;;;;;;444.77;428.93;;;12.40;99.90;;;;;;5010565;28;20468;-72
2024/02/22 10:01:41;;;;;;;440.53;424.87;;;12.50;99.90;;;;;;5011688;28;20461;-72
2024/02/22 10:04:11;;;;;;;399.43;385.57;;;12.70;99.90;;;;;;5011097;28;20485;-72
2024/02/22 10:06:38;;;;;;;370.37;357.87;;;12.90;99.90;;;;;;5012052;28;20456;-72
2024/02/22 10:09:06;;;;;;;299.60;290.10;;;13.00;99.90;;;;;;5002519;28;20462;-72
2024/02/22 10:11:33;;;;;;;326.93;316.27;;;13.20;99.90;;;;;;4997030;28;20984;-72
2024/02/22 10:14:01;;;;;;;289.80;280.73;;;13.30;99.90;;;;;;5009092;28;20474;-72
2024/02/22 10:16:29;;;;;;;255.50;247.70;;;13.40;99.90;;;;;;5015464;28;20457;-72
2024/02/22 10:18:59;;;;;;;276.33;267.83;;;13.40;99.90;;;;;;5015184;28;20469;-73
2024/02/22 10:21:28;;;;;;;269.70;261.40;;;13.50;99.90;;;;;;5015099;28;20840;-72
2024/02/22 10:23:56;;;;;;;212.93;206.30;;;13.60;99.90;;;;;;4998737;28;20604;-73
2024/02/22 10:26:25;;;;;;;168.87;163.57;;;13.70;99.90;;;;;;4995653;28;20461;-72
2024/02/22 10:29:00;;;;;;;173.97;168.43;;;13.60;99.90;;;;;;4995498;28;20449;-75
2024/02/22 10:31:28;;;;;;;147.47;142.67;;;13.70;99.90;;;;;;4995597;28;20461;-73
2024/02/22 10:34:02;;;;;;;108.23;104.43;;;13.70;99.90;;;;;;5011326;28;20667;-73
2024/02/22 10:36:30;;;;;;;150.47;145.53;;;13.60;99.90;;;;;;5009215;28;20537;-72
2024/02/22 10:38:59;;;;;;;192.80;186.73;;;13.60;99.90;;;;;;5011710;28;20449;-71
2024/02/22 10:41:27;;;;;;;213.67;207.00;;;13.60;99.90;;;;;;5014887;28;20940;-71
2024/02/22 10:43:57;;;;;;;219.80;213.00;;;13.40;99.90;;;;;;5014292;28;20488;-71
2024/02/22 10:46:28;;;;;;;217.83;211.20;;;13.50;99.90;;;;;;5015162;28;20453;-72
2024/02/22 10:48:57;;;;;;;225.93;219.07;;;13.40;99.90;;;;;;5015277;28;20471;-72
2024/02/22 10:51:25;;;;;;;261.27;253.43;;;13.50;99.90;;;;;;5003236;28;20450;-72
2024/02/22 10:53:54;;;;;;;191.30;185.30;;;13.50;99.90;;;;;;4993307;28;20919;-74
2024/02/22 10:56:23;;;;;;;208.50;202.00;;;13.60;99.90;;;;;;4998435;28;20464;-72
2024/02/22 10:58:56;;;;;;;174.00;168.53;;;13.50;99.90;;;;;;5014604;28;20461;-70
2024/02/22 11:01:24;;;;;;;163.38;158.23;;;13.40;99.90;;;;;;5006870;28;20537;-72
2024/02/22 11:03:52;;;;;;;159.65;154.57;;;13.50;99.90;;;;;;5013272;28;20537;-72
2024/02/22 11:06:21;;;;;;;112.70;109.00;;;13.50;99.90;;;;;;5003092;28;20210;-72
2024/02/22 11:08:49;;;;;;;110.13;106.50;;;13.50;99.90;;;;;;4994618;28;20943;-71
2024/02/22 11:11:26;;;;;;;98.37;95.07;;;13.40;99.90;;;;;;4994325;28;20462;-72
2024/02/22 11:13:59;;;;;;;107.43;103.93;;;13.30;99.90;;;;;;5010075;28;20480;-72
2024/02/22 11:16:33;;;;;;;102.63;99.23;;;13.20;99.90;;;;;;5014412;28;20783;-72
2024/02/22 11:19:05;;;;;;;111.17;107.57;;;13.20;99.90;;;;;;4997537;28;20465;-72
2024/02/22 11:21:32;;;;;;;136.10;131.73;;;13.20;99.90;;;;;;4999659;28;20464;-72
2024/02/22 11:24:06;;;;;;;167.57;162.30;;;13.10;99.90;;;;;;5013266;28;20480;-72
2024/02/22 11:26:34;;;;;;;178.83;172.97;;;13.10;99.90;;;;;;5008501;28;20999;-72
2024/02/22 11:29:02;;;;;;;203.33;197.17;;;13.20;99.90;;;;;;4994650;28;20458;-72
2024/02/22 11:31:29;;;;;;;312.30;302.83;;;13.20;99.90;;;;;;5007055;28;20461;-72
2024/02/22 11:33:57;;;;;;;380.83;368.43;;;13.30;99.90;;;;;;5005433;28;20484;-72
2024/02/22 11:36:25;;;;;;;395.60;382.70;;;13.30;99.90;;;;;;4994717;28;20831;-72
2024/02/22 11:38:58;;;;;;;445.37;430.90;;;13.30;99.90;;;;;;5009816;28;20457;-71
2024/02/22 11:41:26;;;;;;;514.03;496.87;;;13.20;99.90;;;;;;5006497;28;20449;-71
2024/02/22 11:44:03;;;;;;;525.90;508.27;;;13.10;99.90;;;;;;5005422;28;21007;-71
2024/02/22 11:46:34;;;;;;;697.50;669.70;;;13.00;99.90;;;;;;4993399;28;21054;-71
2024/02/22 11:49:02;;;;;;;792.03;754.45;;;13.00;99.90;;;;;;5009867;28;20450;-71
2024/02/22 11:51:29;;;;;;;730.77;701.33;;;13.00;99.90;;;;;;5013919;28;20225;-71
2024/02/22 11:53:57;;;;;;;690.47;663.90;;;13.20;99.90;;;;;;5013457;28;20473;-71
2024/02/22 11:56:23;;;;;;;678.93;653.17;;;13.00;99.90;;;;;;5005833;28;20504;-71
2024/02/22 11:58:50;;;;;;;632.13;608.90;;;13.00;99.90;;;;;;5013608;28;20465;-71
2024/02/22 12:01:20;;;;;;;651.73;627.07;;;12.90;99.90;;;;;;5013417;28;20459;-72
2024/02/22 12:03:48;;;;;;;657.13;631.73;;;12.90;99.90;;;;;;5013340;28;20481;-73
2024/02/22 12:06:15;;;;;;;695.40;667.33;;;12.90;99.90;;;;;;5013518;28;20492;-71
2024/02/22 12:08:42;;;;;;;561.43;540.83;;;12.90;99.90;;;;;;5013454;28;20449;-71
2024/02/22 12:11:09;;;;;;;549.10;529.00;;;13.00;99.90;;;;;;5012584;28;20475;-71